createdAt,value
2022-10-09T00:03:03.464Z,4.10
2022-10-09T00:08:05.515Z,3.80
2022-10-09T00:13:07.172Z,4.80
2022-10-09T00:18:10.575Z,6.00
2022-10-09T00:23:17.515Z,3.60
2022-10-09T00:28:20.279Z,8.00
2022-10-09T00:33:22.233Z,9.70
2022-10-09T00:38:23.936Z,3.40
2022-10-09T00:43:51.344Z,6.30
2022-10-09T00:49:19.232Z,4.80
2022-10-09T00:54:24.809Z,6.20
2022-10-09T00:59:27.473Z,5.20
2022-10-09T01:04:33.687Z,5.40
2022-10-09T01:09:50.616Z,6.00
2022-10-09T01:15:16.832Z,4.40
2022-10-09T01:20:27.893Z,7.90
2022-10-09T01:25:36.540Z,6.70
2022-10-09T01:30:38.629Z,4.20
2022-10-09T01:35:41.791Z,3.70
2022-10-09T01:40:43.897Z,5.90
2022-10-09T01:45:47.603Z,9.20
2022-10-09T01:50:56.261Z,8.20
2022-10-09T01:56:11.667Z,3.90
2022-10-09T02:01:16.411Z,5.60
2022-10-09T02:06:19.462Z,3.10
2022-10-09T02:11:24.018Z,4.80
2022-10-09T02:16:43.839Z,4.60
2022-10-09T02:21:54.531Z,5.00
2022-10-09T02:26:58.708Z,2.80
2022-10-09T02:32:00.417Z,2.80
2022-10-09T02:37:02.649Z,5.40
2022-10-09T02:42:04.470Z,3.80
2022-10-09T02:47:06.347Z,6.50
2022-10-09T02:52:08.016Z,5.60
2022-10-09T02:57:09.791Z,7.60
2022-10-09T03:02:11.749Z,6.90
2022-10-09T03:07:13.530Z,5.50
2022-10-09T03:12:21.270Z,4.40
2022-10-09T03:17:23.015Z,4.80
2022-10-09T03:22:24.661Z,5.60
2022-10-09T03:27:26.319Z,8.90
2022-10-09T03:32:28.054Z,7.10
2022-10-09T03:37:29.786Z,6.60
2022-10-09T03:42:31.632Z,4.60
2022-10-09T03:47:33.293Z,6.60
2022-10-09T03:52:36.316Z,5.70
2022-10-09T03:57:38.675Z,8.90
2022-10-09T04:02:40.374Z,4.30
2022-10-09T04:07:42.168Z,7.60
2022-10-09T04:12:43.849Z,4.70
2022-10-09T04:17:45.491Z,4.40
2022-10-09T04:22:47.467Z,3.50
2022-10-09T04:27:49.433Z,7.00
2022-10-09T04:32:51.569Z,3.60
2022-10-09T04:37:53.455Z,4.90
2022-10-09T04:42:56.362Z,5.90
2022-10-09T04:47:58.209Z,5.50
2022-10-09T04:52:59.866Z,5.90
2022-10-09T04:58:01.510Z,4.60
2022-10-09T05:03:03.280Z,5.60
2022-10-09T05:08:04.984Z,5.70
2022-10-09T05:13:06.807Z,7.10
2022-10-09T05:18:08.468Z,6.40
2022-10-09T05:23:10.084Z,4.60
2022-10-09T05:28:11.844Z,4.70
2022-10-09T05:33:13.568Z,4.60
2022-10-09T05:38:15.310Z,8.30
2022-10-09T05:43:16.987Z,6.20
2022-10-09T05:48:19.273Z,6.10
2022-10-09T05:53:20.979Z,13.40
2022-10-09T05:58:22.683Z,11.70
2022-10-09T06:03:24.411Z,9.20
2022-10-09T06:08:26.176Z,9.40
2022-10-09T06:13:27.840Z,9.20
2022-10-09T06:18:29.515Z,7.20
2022-10-09T06:23:31.947Z,9.50
2022-10-09T06:28:35.423Z,11.40
2022-10-09T06:33:39.438Z,7.20
2022-10-09T06:38:42.415Z,6.50
2022-10-09T06:43:50.354Z,8.90
2022-10-09T06:48:52.311Z,7.60
2022-10-09T06:53:56.873Z,8.30
2022-10-09T06:59:06.755Z,7.40
2022-10-09T07:04:13.483Z,3.70
2022-10-09T07:09:15.964Z,5.60
2022-10-09T07:14:17.885Z,5.30
2022-10-09T07:19:19.778Z,3.30
2022-10-09T07:24:21.556Z,5.50
2022-10-09T07:29:23.289Z,4.70
2022-10-09T07:34:25.063Z,4.20
2022-10-09T07:39:26.812Z,4.80
2022-10-09T07:44:28.506Z,6.10
2022-10-09T07:49:30.178Z,5.30
2022-10-09T07:54:31.814Z,6.60
2022-10-09T07:59:35.792Z,5.20
2022-10-09T08:04:37.612Z,3.60
2022-10-09T08:09:39.764Z,4.90
2022-10-09T08:14:41.454Z,5.60
2022-10-09T08:19:43.069Z,2.90
2022-10-09T08:24:44.715Z,5.50
2022-10-09T08:29:46.360Z,3.10
2022-10-09T08:34:48.164Z,5.80
2022-10-09T08:39:49.791Z,5.60
2022-10-09T08:44:51.447Z,6.60
2022-10-09T08:50:23.987Z,6.00
2022-10-09T08:55:32.996Z,3.80
2022-10-09T09:00:43.438Z,4.90
2022-10-09T09:06:04.880Z,3.00
2022-10-09T09:11:47.492Z,2.70
2022-10-09T09:17:04.967Z,4.10
2022-10-09T09:22:13.452Z,1.60
2022-10-09T09:27:19.736Z,5.10
2022-10-09T09:32:25.201Z,4.80
2022-10-09T09:37:27.589Z,2.60
2022-10-09T09:42:29.516Z,2.80
2022-10-09T09:47:38.665Z,5.90
2022-10-09T09:52:45.640Z,3.90
2022-10-09T09:57:47.646Z,2.80
2022-10-09T10:03:01.181Z,5.50
2022-10-09T10:08:13.587Z,2.90
2022-10-09T10:13:19.413Z,2.30
2022-10-09T10:18:24.353Z,3.40
2022-10-09T10:23:50.312Z,2.90
2022-10-09T10:28:59.169Z,4.20
2022-10-09T10:34:03.446Z,15.50
2022-10-09T10:39:15.157Z,5.30
2022-10-09T10:44:26.004Z,3.40
2022-10-09T10:49:32.865Z,2.80
2022-10-09T10:54:43.111Z,4.10
2022-10-09T11:00:04.198Z,1.80
2022-10-09T11:05:27.066Z,2.40
2022-10-09T11:10:38.925Z,1.50
2022-10-09T11:16:18.687Z,2.60
2022-10-09T11:21:29.954Z,3.00
2022-10-09T11:27:03.003Z,3.10
2022-10-09T11:32:19.850Z,1.70
2022-10-09T11:37:26.858Z,2.70
2022-10-09T11:42:28.952Z,1.10
2022-10-09T11:47:33.271Z,1.20
2022-10-09T11:53:06.153Z,2.20
2022-10-09T11:58:15.065Z,2.10
2022-10-09T12:03:38.348Z,3.70
2022-10-09T12:08:55.130Z,2.30
2022-10-09T12:14:00.010Z,3.00
2022-10-09T12:19:13.622Z,2.40
2022-10-09T12:24:17.881Z,3.10
2022-10-09T12:29:47.267Z,2.20
2022-10-09T12:34:51.113Z,4.00
2022-10-09T12:39:52.720Z,2.80
2022-10-09T12:44:55.878Z,2.80
2022-10-09T12:50:00.111Z,1.30
2022-10-09T12:55:02.378Z,3.90
2022-10-09T13:00:05.286Z,2.60
2022-10-09T13:05:07.235Z,2.80
2022-10-09T13:10:19.148Z,3.30
2022-10-09T13:15:37.147Z,2.90
2022-10-09T13:20:38.899Z,2.20
2022-10-09T13:25:43.018Z,5.50
2022-10-09T13:30:44.764Z,1.50
2022-10-09T13:35:47.048Z,1.00
2022-10-09T13:40:48.727Z,2.00
2022-10-09T13:45:50.545Z,1.00
2022-10-09T13:50:52.512Z,1.30
2022-10-09T13:55:59.987Z,3.00
2022-10-09T14:01:03.627Z,4.30
2022-10-09T14:06:05.593Z,1.90
2022-10-09T14:11:07.413Z,11.40
2022-10-09T14:16:11.189Z,2.40
2022-10-09T14:21:15.486Z,2.80
2022-10-09T14:26:17.448Z,2.60
2022-10-09T14:31:19.979Z,3.40
2022-10-09T14:36:21.682Z,1.70
2022-10-09T14:41:23.451Z,1.70
2022-10-09T14:46:27.142Z,4.50
2022-10-09T14:51:30.722Z,3.10
2022-10-09T14:56:35.255Z,1.90
2022-10-09T15:01:36.916Z,2.60
2022-10-09T15:06:38.612Z,2.10
2022-10-09T15:11:40.358Z,3.10
2022-10-09T15:16:42.251Z,2.50
2022-10-09T15:21:43.912Z,2.30
2022-10-09T15:26:45.558Z,3.90
2022-10-09T15:31:51.412Z,2.30
2022-10-09T15:36:53.091Z,3.80
2022-10-09T15:41:54.800Z,2.10
2022-10-09T15:46:56.579Z,5.20
2022-10-09T15:51:58.368Z,2.60
2022-10-09T15:57:00.052Z,11.40
2022-10-09T16:02:01.808Z,11.30
2022-10-09T16:07:03.884Z,10.40
2022-10-09T16:12:05.755Z,10.70
2022-10-09T16:17:11.133Z,16.60
2022-10-09T16:22:13.228Z,11.20
2022-10-09T16:27:15.001Z,13.60
2022-10-09T16:32:16.780Z,8.30
2022-10-09T16:37:18.455Z,6.90
2022-10-09T16:42:20.791Z,8.50
2022-10-09T16:47:22.460Z,7.80
2022-10-09T16:52:24.102Z,6.90
2022-10-09T16:57:26.088Z,2.70
2022-10-09T17:02:28.718Z,5.00
2022-10-09T17:07:30.539Z,5.30
2022-10-09T17:12:32.362Z,6.80
2022-10-09T17:17:34.163Z,5.60
2022-10-09T17:22:35.892Z,8.30
2022-10-09T17:27:37.666Z,11.30
2022-10-09T17:32:39.711Z,10.80
2022-10-09T17:37:41.387Z,11.60
2022-10-09T17:42:43.084Z,8.40
2022-10-09T17:47:44.848Z,13.40
2022-10-09T17:52:46.572Z,10.50
2022-10-09T17:57:48.778Z,9.40
2022-10-09T18:02:50.562Z,20.40
2022-10-09T18:07:52.600Z,28.60
2022-10-09T18:12:54.628Z,26.10
2022-10-09T18:17:56.527Z,28.50
2022-10-09T18:22:58.395Z,27.00
2022-10-09T18:28:00.516Z,24.60
2022-10-09T18:33:02.269Z,21.30
2022-10-09T18:38:04.803Z,25.40
2022-10-09T18:43:06.850Z,17.70
2022-10-09T18:48:08.636Z,19.10
2022-10-09T18:53:11.500Z,25.50
2022-10-09T18:58:14.995Z,31.80
2022-10-09T19:03:16.639Z,36.00
2022-10-09T19:08:18.342Z,34.10
2022-10-09T19:13:21.368Z,37.10
2022-10-09T19:18:23.139Z,29.50
2022-10-09T19:23:24.873Z,33.50
2022-10-09T19:28:31.093Z,42.20
2022-10-09T19:33:33.014Z,38.10
2022-10-09T19:38:35.182Z,45.50
2022-10-09T19:43:37.374Z,33.70
2022-10-09T19:48:39.095Z,39.30
2022-10-09T19:53:42.754Z,36.50
2022-10-09T19:58:46.599Z,29.70
2022-10-09T20:03:53.319Z,35.60
2022-10-09T20:08:55.761Z,33.80
2022-10-09T20:13:58.872Z,30.30
2022-10-09T20:19:01.796Z,40.20
2022-10-09T20:24:03.974Z,39.40
2022-10-09T20:29:07.153Z,37.60
2022-10-09T20:34:08.902Z,29.00
2022-10-09T20:39:13.193Z,27.80
2022-10-09T20:44:15.027Z,25.30
2022-10-09T20:49:16.688Z,20.40
2022-10-09T20:54:21.811Z,20.90
2022-10-09T20:59:23.613Z,23.30
2022-10-09T21:04:25.402Z,25.20
2022-10-09T21:09:32.286Z,26.00
2022-10-09T21:14:36.611Z,27.90
2022-10-09T21:19:38.261Z,30.40
2022-10-09T21:24:39.985Z,25.90
2022-10-09T21:29:41.684Z,25.70
2022-10-09T21:34:43.479Z,26.80
2022-10-09T21:39:45.284Z,24.10
2022-10-09T21:44:46.939Z,24.50
2022-10-09T21:49:48.945Z,20.10
2022-10-09T21:54:50.681Z,22.10
2022-10-09T21:59:52.523Z,20.20
2022-10-09T22:04:57.251Z,23.20
2022-10-09T22:09:58.992Z,17.40
2022-10-09T22:15:00.676Z,19.00
2022-10-09T22:20:02.486Z,20.70
2022-10-09T22:25:04.681Z,18.50
2022-10-09T22:30:07.401Z,16.90
2022-10-09T22:35:09.227Z,15.20
2022-10-09T22:40:11.030Z,16.90
2022-10-09T22:45:12.826Z,15.30
2022-10-09T22:50:14.608Z,17.80
2022-10-09T22:55:16.362Z,19.00
2022-10-09T23:00:18.119Z,17.10
2022-10-09T23:05:19.902Z,15.60
2022-10-09T23:10:21.599Z,15.90
2022-10-09T23:15:23.329Z,16.40
2022-10-09T23:20:25.055Z,13.70
2022-10-09T23:25:26.715Z,11.80
2022-10-09T23:30:28.405Z,13.80
2022-10-09T23:35:30.160Z,13.10
2022-10-09T23:40:31.832Z,13.10
2022-10-09T23:45:33.535Z,11.70
2022-10-09T23:50:35.253Z,14.30
2022-10-09T23:55:36.976Z,12.50
